sensor_id;sensor_type;location;lat;lon;timestamp;P1;durP1;ratioP1;P2;durP2;ratioP2
27365;SDS011;14837;57.148;-2.144;2022-08-03T00:01:47;9.75;;;3.13;;
27365;SDS011;14837;57.148;-2.144;2022-08-03T00:04:14;4.20;;;2.13;;
27365;SDS011;14837;57.148;-2.144;2022-08-03T00:06:40;3.47;;;2.05;;
27365;SDS011;14837;57.148;-2.144;2022-08-03T00:09:07;3.95;;;2.30;;
27365;SDS011;14837;57.148;-2.144;2022-08-03T00:11:34;6.63;;;3.10;;
27365;SDS011;14837;57.148;-2.144;2022-08-03T00:14:00;3.78;;;1.95;;
27365;SDS011;14837;57.148;-2.144;2022-08-03T00:16:27;8.35;;;2.90;;
27365;SDS011;14837;57.148;-2.144;2022-08-03T00:18:53;7.88;;;2.70;;
27365;SDS011;14837;57.148;-2.144;2022-08-03T00:21:20;5.03;;;2.40;;
27365;SDS011;14837;57.148;-2.144;2022-08-03T00:23:47;3.97;;;2.15;;
27365;SDS011;14837;57.148;-2.144;2022-08-03T00:26:17;5.50;;;2.17;;
27365;SDS011;14837;57.148;-2.144;2022-08-03T00:28:44;5.45;;;2.22;;
27365;SDS011;14837;57.148;-2.144;2022-08-03T00:31:10;6.45;;;2.47;;
27365;SDS011;14837;57.148;-2.144;2022-08-03T00:33:38;4.63;;;2.75;;
27365;SDS011;14837;57.148;-2.144;2022-08-03T00:36:25;5.57;;;2.38;;
27365;SDS011;14837;57.148;-2.144;2022-08-03T00:38:52;9.35;;;2.83;;
27365;SDS011;14837;57.148;-2.144;2022-08-03T00:41:19;4.57;;;2.55;;
27365;SDS011;14837;57.148;-2.144;2022-08-03T00:43:45;4.68;;;2.45;;
27365;SDS011;14837;57.148;-2.144;2022-08-03T00:46:13;5.45;;;2.17;;
27365;SDS011;14837;57.148;-2.144;2022-08-03T00:48:45;6.07;;;2.70;;
27365;SDS011;14837;57.148;-2.144;2022-08-03T00:51:12;4.03;;;2.05;;
27365;SDS011;14837;57.148;-2.144;2022-08-03T00:53:39;5.25;;;2.85;;
27365;SDS011;14837;57.148;-2.144;2022-08-03T00:56:05;4.47;;;1.80;;
27365;SDS011;14837;57.148;-2.144;2022-08-03T00:58:32;5.95;;;2.80;;
27365;SDS011;14837;57.148;-2.144;2022-08-03T01:00:58;5.93;;;2.60;;
27365;SDS011;14837;57.148;-2.144;2022-08-03T01:03:25;3.13;;;2.35;;
27365;SDS011;14837;57.148;-2.144;2022-08-03T01:05:55;8.32;;;2.92;;
27365;SDS011;14837;57.148;-2.144;2022-08-03T01:16:53;4.90;;;2.63;;
27365;SDS011;14837;57.148;-2.144;2022-08-03T01:22:33;4.78;;;2.67;;
27365;SDS011;14837;57.148;-2.144;2022-08-03T01:24:55;4.30;;;2.55;;
27365;SDS011;14837;57.148;-2.144;2022-08-03T01:27:28;2.83;;;2.50;;
27365;SDS011;14837;57.148;-2.144;2022-08-03T01:30:03;9.13;;;3.10;;
27365;SDS011;14837;57.148;-2.144;2022-08-03T01:32:33;4.63;;;3.53;;
27365;SDS011;14837;57.148;-2.144;2022-08-03T01:35:21;7.93;;;3.58;;
27365;SDS011;14837;57.148;-2.144;2022-08-03T01:38:01;4.70;;;3.45;;
27365;SDS011;14837;57.148;-2.144;2022-08-03T01:40:28;6.57;;;2.83;;
27365;SDS011;14837;57.148;-2.144;2022-08-03T01:42:55;6.13;;;3.30;;
27365;SDS011;14837;57.148;-2.144;2022-08-03T01:45:22;6.63;;;2.92;;
27365;SDS011;14837;57.148;-2.144;2022-08-03T01:47:49;10.00;;;3.72;;
27365;SDS011;14837;57.148;-2.144;2022-08-03T01:50:21;7.38;;;3.17;;
27365;SDS011;14837;57.148;-2.144;2022-08-03T01:52:48;5.18;;;3.13;;
27365;SDS011;14837;57.148;-2.144;2022-08-03T01:55:16;6.03;;;2.92;;
27365;SDS011;14837;57.148;-2.144;2022-08-03T01:57:44;6.47;;;3.55;;
27365;SDS011;14837;57.148;-2.144;2022-08-03T02:00:31;4.90;;;3.20;;
27365;SDS011;14837;57.148;-2.144;2022-08-03T02:02:58;8.38;;;3.80;;
27365;SDS011;14837;57.148;-2.144;2022-08-03T02:05:25;8.50;;;3.97;;
27365;SDS011;14837;57.148;-2.144;2022-08-03T02:07:52;4.28;;;3.08;;
27365;SDS011;14837;57.148;-2.144;2022-08-03T02:10:19;6.05;;;2.80;;
27365;SDS011;14837;57.148;-2.144;2022-08-03T02:13:01;8.00;;;3.25;;
27365;SDS011;14837;57.148;-2.144;2022-08-03T02:15:28;9.13;;;2.58;;
27365;SDS011;14837;57.148;-2.144;2022-08-03T02:17:55;5.15;;;3.00;;
27365;SDS011;14837;57.148;-2.144;2022-08-03T02:20:22;6.72;;;2.72;;
27365;SDS011;14837;57.148;-2.144;2022-08-03T02:22:50;6.95;;;3.10;;
27365;SDS011;14837;57.148;-2.144;2022-08-03T02:25:17;7.00;;;3.38;;
27365;SDS011;14837;57.148;-2.144;2022-08-03T02:28:18;8.18;;;4.28;;
27365;SDS011;14837;57.148;-2.144;2022-08-03T02:30:37;4.22;;;2.90;;
27365;SDS011;14837;57.148;-2.144;2022-08-03T02:33:04;5.95;;;2.72;;
27365;SDS011;14837;57.148;-2.144;2022-08-03T02:35:33;11.23;;;3.50;;
27365;SDS011;14837;57.148;-2.144;2022-08-03T02:38:02;7.20;;;3.28;;
27365;SDS011;14837;57.148;-2.144;2022-08-03T02:40:29;4.88;;;2.95;;
27365;SDS011;14837;57.148;-2.144;2022-08-03T02:42:58;8.05;;;3.53;;
27365;SDS011;14837;57.148;-2.144;2022-08-03T02:45:25;7.05;;;2.63;;
27365;SDS011;14837;57.148;-2.144;2022-08-03T02:47:54;7.53;;;3.70;;
27365;SDS011;14837;57.148;-2.144;2022-08-03T02:50:21;5.20;;;2.80;;
27365;SDS011;14837;57.148;-2.144;2022-08-03T02:52:49;3.58;;;2.55;;
27365;SDS011;14837;57.148;-2.144;2022-08-03T02:55:16;5.15;;;2.63;;
27365;SDS011;14837;57.148;-2.144;2022-08-03T02:57:43;3.75;;;2.40;;
27365;SDS011;14837;57.148;-2.144;2022-08-03T03:00:10;5.82;;;2.90;;
27365;SDS011;14837;57.148;-2.144;2022-08-03T03:02:38;7.93;;;2.83;;
27365;SDS011;14837;57.148;-2.144;2022-08-03T03:05:09;5.57;;;2.63;;
27365;SDS011;14837;57.148;-2.144;2022-08-03T03:07:57;3.90;;;2.22;;
27365;SDS011;14837;57.148;-2.144;2022-08-03T03:10:23;4.28;;;2.30;;
27365;SDS011;14837;57.148;-2.144;2022-08-03T03:12:51;5.50;;;2.83;;
27365;SDS011;14837;57.148;-2.144;2022-08-03T03:15:18;5.57;;;2.17;;
27365;SDS011;14837;57.148;-2.144;2022-08-03T03:17:45;6.05;;;2.60;;
27365;SDS011;14837;57.148;-2.144;2022-08-03T03:20:13;4.00;;;2.40;;
27365;SDS011;14837;57.148;-2.144;2022-08-03T03:22:55;4.65;;;2.65;;
27365;SDS011;14837;57.148;-2.144;2022-08-03T03:25:21;5.25;;;2.60;;
27365;SDS011;14837;57.148;-2.144;2022-08-03T03:27:48;4.53;;;2.22;;
27365;SDS011;14837;57.148;-2.144;2022-08-03T03:30:16;6.32;;;2.45;;
27365;SDS011;14837;57.148;-2.144;2022-08-03T03:32:42;3.60;;;2.30;;
27365;SDS011;14837;57.148;-2.144;2022-08-03T03:35:09;4.15;;;2.28;;
27365;SDS011;14837;57.148;-2.144;2022-08-03T03:37:36;4.72;;;2.28;;
27365;SDS011;14837;57.148;-2.144;2022-08-03T03:40:02;4.57;;;2.63;;
27365;SDS011;14837;57.148;-2.144;2022-08-03T03:42:29;5.13;;;2.35;;
27365;SDS011;14837;57.148;-2.144;2022-08-03T03:44:56;7.05;;;2.42;;
27365;SDS011;14837;57.148;-2.144;2022-08-03T03:47:24;3.45;;;2.50;;
27365;SDS011;14837;57.148;-2.144;2022-08-03T03:49:58;4.22;;;2.20;;
27365;SDS011;14837;57.148;-2.144;2022-08-03T03:52:24;5.57;;;2.30;;
27365;SDS011;14837;57.148;-2.144;2022-08-03T03:54:51;6.40;;;1.63;;
27365;SDS011;14837;57.148;-2.144;2022-08-03T03:57:22;3.78;;;1.92;;
27365;SDS011;14837;57.148;-2.144;2022-08-03T03:59:49;3.75;;;1.70;;
27365;SDS011;14837;57.148;-2.144;2022-08-03T04:02:15;4.28;;;1.85;;
27365;SDS011;14837;57.148;-2.144;2022-08-03T04:04:42;3.97;;;2.05;;
27365;SDS011;14837;57.148;-2.144;2022-08-03T04:07:28;4.25;;;1.77;;
27365;SDS011;14837;57.148;-2.144;2022-08-03T04:10:17;5.18;;;2.30;;
27365;SDS011;14837;57.148;-2.144;2022-08-03T04:13:05;3.33;;;1.60;;
27365;SDS011;14837;57.148;-2.144;2022-08-03T04:15:35;5.53;;;2.20;;
27365;SDS011;14837;57.148;-2.144;2022-08-03T04:18:02;5.10;;;2.03;;
27365;SDS011;14837;57.148;-2.144;2022-08-03T04:20:30;3.38;;;1.92;;
27365;SDS011;14837;57.148;-2.144;2022-08-03T04:22:57;3.17;;;1.73;;
27365;SDS011;14837;57.148;-2.144;2022-08-03T04:25:26;6.10;;;2.03;;
27365;SDS011;14837;57.148;-2.144;2022-08-03T04:27:53;2.65;;;1.40;;
27365;SDS011;14837;57.148;-2.144;2022-08-03T04:30:44;5.90;;;1.65;;
27365;SDS011;14837;57.148;-2.144;2022-08-03T04:33:13;3.60;;;1.75;;
27365;SDS011;14837;57.148;-2.144;2022-08-03T04:35:42;2.30;;;1.80;;
27365;SDS011;14837;57.148;-2.144;2022-08-03T04:38:28;5.07;;;1.60;;
27365;SDS011;14837;57.148;-2.144;2022-08-03T04:40:55;3.63;;;1.60;;
27365;SDS011;14837;57.148;-2.144;2022-08-03T04:43:22;2.15;;;1.27;;
27365;SDS011;14837;57.148;-2.144;2022-08-03T04:45:49;9.52;;;2.00;;
27365;SDS011;14837;57.148;-2.144;2022-08-03T04:48:16;2.88;;;1.60;;
27365;SDS011;14837;57.148;-2.144;2022-08-03T04:50:45;2.20;;;1.63;;
27365;SDS011;14837;57.148;-2.144;2022-08-03T04:53:12;5.40;;;2.17;;
27365;SDS011;14837;57.148;-2.144;2022-08-03T04:55:38;3.72;;;1.45;;
27365;SDS011;14837;57.148;-2.144;2022-08-03T04:58:05;2.28;;;1.08;;
27365;SDS011;14837;57.148;-2.144;2022-08-03T05:00:31;3.47;;;1.40;;
27365;SDS011;14837;57.148;-2.144;2022-08-03T05:02:58;4.85;;;1.58;;
27365;SDS011;14837;57.148;-2.144;2022-08-03T05:05:25;2.90;;;1.15;;
27365;SDS011;14837;57.148;-2.144;2022-08-03T05:08:11;3.40;;;1.10;;
27365;SDS011;14837;57.148;-2.144;2022-08-03T05:10:38;2.40;;;1.50;;
27365;SDS011;14837;57.148;-2.144;2022-08-03T05:13:04;1.90;;;1.20;;
27365;SDS011;14837;57.148;-2.144;2022-08-03T05:15:31;3.17;;;1.48;;
27365;SDS011;14837;57.148;-2.144;2022-08-03T05:17:57;3.20;;;1.40;;
27365;SDS011;14837;57.148;-2.144;2022-08-03T05:20:24;2.83;;;1.27;;
27365;SDS011;14837;57.148;-2.144;2022-08-03T05:22:51;2.10;;;1.02;;
27365;SDS011;14837;57.148;-2.144;2022-08-03T05:25:17;4.68;;;1.70;;
27365;SDS011;14837;57.148;-2.144;2022-08-03T05:27:45;3.88;;;1.23;;
27365;SDS011;14837;57.148;-2.144;2022-08-03T05:30:12;4.63;;;1.63;;
27365;SDS011;14837;57.148;-2.144;2022-08-03T05:32:58;3.38;;;1.17;;
27365;SDS011;14837;57.148;-2.144;2022-08-03T05:35:25;4.47;;;1.17;;
27365;SDS011;14837;57.148;-2.144;2022-08-03T05:38:14;3.22;;;1.02;;
27365;SDS011;14837;57.148;-2.144;2022-08-03T05:40:54;2.17;;;1.20;;
27365;SDS011;14837;57.148;-2.144;2022-08-03T05:43:41;2.92;;;1.27;;
27365;SDS011;14837;57.148;-2.144;2022-08-03T05:46:07;2.85;;;1.30;;
27365;SDS011;14837;57.148;-2.144;2022-08-03T05:48:38;4.50;;;1.13;;
27365;SDS011;14837;57.148;-2.144;2022-08-03T05:51:05;1.55;;;0.95;;
27365;SDS011;14837;57.148;-2.144;2022-08-03T05:53:33;1.95;;;1.13;;
27365;SDS011;14837;57.148;-2.144;2022-08-03T05:55:59;3.03;;;1.00;;
27365;SDS011;14837;57.148;-2.144;2022-08-03T05:58:39;3.08;;;1.23;;
27365;SDS011;14837;57.148;-2.144;2022-08-03T06:01:06;2.17;;;1.27;;
27365;SDS011;14837;57.148;-2.144;2022-08-03T06:03:33;1.77;;;0.70;;
27365;SDS011;14837;57.148;-2.144;2022-08-03T06:05:59;1.90;;;1.15;;
27365;SDS011;14837;57.148;-2.144;2022-08-03T06:08:26;2.03;;;0.88;;
27365;SDS011;14837;57.148;-2.144;2022-08-03T06:10:52;2.85;;;0.95;;
27365;SDS011;14837;57.148;-2.144;2022-08-03T06:13:19;2.17;;;1.10;;
27365;SDS011;14837;57.148;-2.144;2022-08-03T06:15:46;2.20;;;0.88;;
27365;SDS011;14837;57.148;-2.144;2022-08-03T06:18:12;4.55;;;1.30;;
27365;SDS011;14837;57.148;-2.144;2022-08-03T06:20:39;3.08;;;0.90;;
27365;SDS011;14837;57.148;-2.144;2022-08-03T06:23:06;4.40;;;1.08;;
27365;SDS011;14837;57.148;-2.144;2022-08-03T06:25:41;2.47;;;1.27;;
27365;SDS011;14837;57.148;-2.144;2022-08-03T06:28:08;2.67;;;1.05;;
27365;SDS011;14837;57.148;-2.144;2022-08-03T06:30:49;2.67;;;1.02;;
27365;SDS011;14837;57.148;-2.144;2022-08-03T06:33:15;2.00;;;1.02;;
27365;SDS011;14837;57.148;-2.144;2022-08-03T06:35:42;3.03;;;1.10;;
27365;SDS011;14837;57.148;-2.144;2022-08-03T06:38:10;2.83;;;0.90;;
27365;SDS011;14837;57.148;-2.144;2022-08-03T06:40:38;1.95;;;1.25;;
27365;SDS011;14837;57.148;-2.144;2022-08-03T06:43:07;1.67;;;1.00;;
27365;SDS011;14837;57.148;-2.144;2022-08-03T06:45:38;4.38;;;1.05;;
27365;SDS011;14837;57.148;-2.144;2022-08-03T06:48:08;6.15;;;1.85;;
27365;SDS011;14837;57.148;-2.144;2022-08-03T06:50:36;4.53;;;1.20;;
27365;SDS011;14837;57.148;-2.144;2022-08-03T06:53:03;3.40;;;1.23;;
27365;SDS011;14837;57.148;-2.144;2022-08-03T06:55:30;2.97;;;1.13;;
27365;SDS011;14837;57.148;-2.144;2022-08-03T06:57:57;1.60;;;0.90;;
27365;SDS011;14837;57.148;-2.144;2022-08-03T07:00:28;3.03;;;1.20;;
27365;SDS011;14837;57.148;-2.144;2022-08-03T07:02:56;1.40;;;1.17;;
27365;SDS011;14837;57.148;-2.144;2022-08-03T07:05:23;3.05;;;1.02;;
27365;SDS011;14837;57.148;-2.144;2022-08-03T07:07:53;1.70;;;0.80;;
27365;SDS011;14837;57.148;-2.144;2022-08-03T07:10:19;2.50;;;1.02;;
27365;SDS011;14837;57.148;-2.144;2022-08-03T07:12:46;3.47;;;0.93;;
27365;SDS011;14837;57.148;-2.144;2022-08-03T07:15:21;1.15;;;0.90;;
27365;SDS011;14837;57.148;-2.144;2022-08-03T07:18:08;3.30;;;1.20;;
27365;SDS011;14837;57.148;-2.144;2022-08-03T07:20:35;4.07;;;1.00;;
27365;SDS011;14837;57.148;-2.144;2022-08-03T07:23:02;4.00;;;1.15;;
27365;SDS011;14837;57.148;-2.144;2022-08-03T07:25:28;3.22;;;1.02;;
27365;SDS011;14837;57.148;-2.144;2022-08-03T07:27:55;2.00;;;1.30;;
27365;SDS011;14837;57.148;-2.144;2022-08-03T07:30:23;3.67;;;1.00;;
27365;SDS011;14837;57.148;-2.144;2022-08-03T07:32:49;4.15;;;0.90;;
27365;SDS011;14837;57.148;-2.144;2022-08-03T07:35:16;0.98;;;0.75;;
27365;SDS011;14837;57.148;-2.144;2022-08-03T07:37:51;3.83;;;1.08;;
27365;SDS011;14837;57.148;-2.144;2022-08-03T07:40:20;4.10;;;1.90;;
27365;SDS011;14837;57.148;-2.144;2022-08-03T07:42:47;5.18;;;0.90;;
27365;SDS011;14837;57.148;-2.144;2022-08-03T07:45:18;1.65;;;0.70;;
27365;SDS011;14837;57.148;-2.144;2022-08-03T07:47:46;2.40;;;1.02;;
27365;SDS011;14837;57.148;-2.144;2022-08-03T07:50:19;2.50;;;0.75;;
27365;SDS011;14837;57.148;-2.144;2022-08-03T07:52:46;6.18;;;1.52;;
27365;SDS011;14837;57.148;-2.144;2022-08-03T07:55:16;3.35;;;1.30;;
27365;SDS011;14837;57.148;-2.144;2022-08-03T07:57:43;3.70;;;0.90;;
27365;SDS011;14837;57.148;-2.144;2022-08-03T08:00:16;4.50;;;0.93;;
27365;SDS011;14837;57.148;-2.144;2022-08-03T08:02:44;2.03;;;0.80;;
27365;SDS011;14837;57.148;-2.144;2022-08-03T08:05:11;4.53;;;1.10;;
27365;SDS011;14837;57.148;-2.144;2022-08-03T08:07:38;2.95;;;1.25;;
27365;SDS011;14837;57.148;-2.144;2022-08-03T08:10:05;2.65;;;0.80;;
27365;SDS011;14837;57.148;-2.144;2022-08-03T08:12:32;5.07;;;1.08;;
27365;SDS011;14837;57.148;-2.144;2022-08-03T08:14:59;4.10;;;0.90;;
27365;SDS011;14837;57.148;-2.144;2022-08-03T08:17:25;3.50;;;1.02;;
27365;SDS011;14837;57.148;-2.144;2022-08-03T08:19:52;3.90;;;1.00;;
27365;SDS011;14837;57.148;-2.144;2022-08-03T08:22:19;2.97;;;0.80;;
27365;SDS011;14837;57.148;-2.144;2022-08-03T08:24:56;5.45;;;1.25;;
27365;SDS011;14837;57.148;-2.144;2022-08-03T08:27:22;2.53;;;0.90;;
27365;SDS011;14837;57.148;-2.144;2022-08-03T08:29:49;4.35;;;1.33;;
27365;SDS011;14837;57.148;-2.144;2022-08-03T08:32:21;2.72;;;0.90;;
27365;SDS011;14837;57.148;-2.144;2022-08-03T08:34:48;3.60;;;0.80;;
27365;SDS011;14837;57.148;-2.144;2022-08-03T08:37:14;2.55;;;0.80;;
27365;SDS011;14837;57.148;-2.144;2022-08-03T08:39:41;2.33;;;0.95;;
27365;SDS011;14837;57.148;-2.144;2022-08-03T08:42:08;3.38;;;0.95;;
27365;SDS011;14837;57.148;-2.144;2022-08-03T08:44:35;3.53;;;1.58;;
27365;SDS011;14837;57.148;-2.144;2022-08-03T08:47:02;3.50;;;0.80;;
27365;SDS011;14837;57.148;-2.144;2022-08-03T08:49:29;3.50;;;1.40;;
27365;SDS011;14837;57.148;-2.144;2022-08-03T08:51:58;3.78;;;0.80;;
27365;SDS011;14837;57.148;-2.144;2022-08-03T08:54:26;2.88;;;1.35;;
27365;SDS011;14837;57.148;-2.144;2022-08-03T08:56:54;4.40;;;0.85;;
27365;SDS011;14837;57.148;-2.144;2022-08-03T08:59:22;3.85;;;1.02;;
27365;SDS011;14837;57.148;-2.144;2022-08-03T09:01:49;1.25;;;0.82;;
27365;SDS011;14837;57.148;-2.144;2022-08-03T09:04:16;2.67;;;0.57;;
27365;SDS011;14837;57.148;-2.144;2022-08-03T09:06:42;3.92;;;0.80;;
27365;SDS011;14837;57.148;-2.144;2022-08-03T09:09:29;3.03;;;0.88;;
27365;SDS011;14837;57.148;-2.144;2022-08-03T09:12:16;2.15;;;0.95;;
27365;SDS011;14837;57.148;-2.144;2022-08-03T09:15:19;3.08;;;0.60;;
27365;SDS011;14837;57.148;-2.144;2022-08-03T09:17:46;1.98;;;1.05;;
27365;SDS011;14837;57.148;-2.144;2022-08-03T09:20:16;3.30;;;0.93;;
27365;SDS011;14837;57.148;-2.144;2022-08-03T09:23:03;2.78;;;1.15;;
27365;SDS011;14837;57.148;-2.144;2022-08-03T09:25:50;3.85;;;0.73;;
27365;SDS011;14837;57.148;-2.144;2022-08-03T09:28:25;1.42;;;0.63;;
27365;SDS011;14837;57.148;-2.144;2022-08-03T09:31:18;5.13;;;1.00;;
27365;SDS011;14837;57.148;-2.144;2022-08-03T09:33:46;4.10;;;0.88;;
27365;SDS011;14837;57.148;-2.144;2022-08-03T09:39:00;3.25;;;0.75;;
27365;SDS011;14837;57.148;-2.144;2022-08-03T09:41:28;1.73;;;0.60;;
27365;SDS011;14837;57.148;-2.144;2022-08-03T09:43:54;2.47;;;0.63;;
27365;SDS011;14837;57.148;-2.144;2022-08-03T09:46:22;1.15;;;0.50;;
27365;SDS011;14837;57.148;-2.144;2022-08-03T09:48:49;1.45;;;0.52;;
27365;SDS011;14837;57.148;-2.144;2022-08-03T09:51:15;1.13;;;0.40;;
27365;SDS011;14837;57.148;-2.144;2022-08-03T09:54:05;1.00;;;0.35;;
27365;SDS011;14837;57.148;-2.144;2022-08-03T09:56:44;2.17;;;0.50;;
27365;SDS011;14837;57.148;-2.144;2022-08-03T09:59:12;1.85;;;0.70;;
27365;SDS011;14837;57.148;-2.144;2022-08-03T10:01:39;1.45;;;0.47;;
27365;SDS011;14837;57.148;-2.144;2022-08-03T10:04:14;1.15;;;0.32;;
27365;SDS011;14837;57.148;-2.144;2022-08-03T10:06:43;1.75;;;0.57;;
27365;SDS011;14837;57.148;-2.144;2022-08-03T10:11:36;1.73;;;0.50;;
27365;SDS011;14837;57.148;-2.144;2022-08-03T10:14:08;2.60;;;0.57;;
27365;SDS011;14837;57.148;-2.144;2022-08-03T10:16:36;2.85;;;0.30;;
27365;SDS011;14837;57.148;-2.144;2022-08-03T10:19:04;1.85;;;0.38;;
27365;SDS011;14837;57.148;-2.144;2022-08-03T10:21:34;3.00;;;0.55;;
27365;SDS011;14837;57.148;-2.144;2022-08-03T10:24:03;0.60;;;0.35;;
27365;SDS011;14837;57.148;-2.144;2022-08-03T10:26:34;1.30;;;0.40;;
27365;SDS011;14837;57.148;-2.144;2022-08-03T10:29:02;0.77;;;0.47;;
27365;SDS011;14837;57.148;-2.144;2022-08-03T10:31:47;0.65;;;0.40;;
27365;SDS011;14837;57.148;-2.144;2022-08-03T10:34:25;1.73;;;0.43;;
27365;SDS011;14837;57.148;-2.144;2022-08-03T10:36:53;1.65;;;0.50;;
27365;SDS011;14837;57.148;-2.144;2022-08-03T10:39:23;0.88;;;0.60;;
27365;SDS011;14837;57.148;-2.144;2022-08-03T10:41:51;2.25;;;0.40;;
27365;SDS011;14837;57.148;-2.144;2022-08-03T10:44:21;1.40;;;0.50;;
27365;SDS011;14837;57.148;-2.144;2022-08-03T10:46:48;2.13;;;0.40;;
27365;SDS011;14837;57.148;-2.144;2022-08-03T10:49:19;0.60;;;0.22;;
27365;SDS011;14837;57.148;-2.144;2022-08-03T10:52:00;0.82;;;0.30;;
27365;SDS011;14837;57.148;-2.144;2022-08-03T10:54:44;1.45;;;0.60;;
27365;SDS011;14837;57.148;-2.144;2022-08-03T10:57:52;3.28;;;0.60;;
27365;SDS011;14837;57.148;-2.144;2022-08-03T11:00:24;1.50;;;0.38;;
27365;SDS011;14837;57.148;-2.144;2022-08-03T11:05:28;2.50;;;0.57;;
27365;SDS011;14837;57.148;-2.144;2022-08-03T11:10:40;2.05;;;0.65;;
27365;SDS011;14837;57.148;-2.144;2022-08-03T11:13:06;1.25;;;0.65;;
27365;SDS011;14837;57.148;-2.144;2022-08-03T11:15:34;1.05;;;0.40;;
27365;SDS011;14837;57.148;-2.144;2022-08-03T11:18:06;1.10;;;0.28;;
27365;SDS011;14837;57.148;-2.144;2022-08-03T11:20:46;2.58;;;0.55;;
27365;SDS011;14837;57.148;-2.144;2022-08-03T11:23:14;0.70;;;0.20;;
27365;SDS011;14837;57.148;-2.144;2022-08-03T11:28:26;0.52;;;0.20;;
27365;SDS011;14837;57.148;-2.144;2022-08-03T11:30:53;0.60;;;0.30;;
27365;SDS011;14837;57.148;-2.144;2022-08-03T11:33:30;0.90;;;0.20;;
27365;SDS011;14837;57.148;-2.144;2022-08-03T11:35:57;1.13;;;0.40;;
27365;SDS011;14837;57.148;-2.144;2022-08-03T11:38:24;1.10;;;0.20;;
27365;SDS011;14837;57.148;-2.144;2022-08-03T11:40:51;0.30;;;0.20;;
27365;SDS011;14837;57.148;-2.144;2022-08-03T11:46:06;0.55;;;0.20;;
27365;SDS011;14837;57.148;-2.144;2022-08-03T11:48:35;0.65;;;0.40;;
27365;SDS011;14837;57.148;-2.144;2022-08-03T11:51:03;1.02;;;0.22;;
27365;SDS011;14837;57.148;-2.144;2022-08-03T11:53:30;1.27;;;0.32;;
27365;SDS011;14837;57.148;-2.144;2022-08-03T11:56:00;0.50;;;0.30;;
27365;SDS011;14837;57.148;-2.144;2022-08-03T11:58:27;2.10;;;0.40;;
27365;SDS011;14837;57.148;-2.144;2022-08-03T12:01:14;0.82;;;0.40;;
27365;SDS011;14837;57.148;-2.144;2022-08-03T12:06:15;1.05;;;0.30;;
27365;SDS011;14837;57.148;-2.144;2022-08-03T12:08:42;0.22;;;0.10;;
27365;SDS011;14837;57.148;-2.144;2022-08-03T12:11:10;0.93;;;0.45;;
27365;SDS011;14837;57.148;-2.144;2022-08-03T12:16:24;0.98;;;0.25;;
27365;SDS011;14837;57.148;-2.144;2022-08-03T12:18:54;2.22;;;0.20;;
27365;SDS011;14837;57.148;-2.144;2022-08-03T12:21:21;0.85;;;0.30;;
27365;SDS011;14837;57.148;-2.144;2022-08-03T12:23:50;0.82;;;0.20;;
27365;SDS011;14837;57.148;-2.144;2022-08-03T12:26:17;1.95;;;0.25;;
27365;SDS011;14837;57.148;-2.144;2022-08-03T12:28:46;2.20;;;0.30;;
27365;SDS011;14837;57.148;-2.144;2022-08-03T12:31:15;1.10;;;0.30;;
27365;SDS011;14837;57.148;-2.144;2022-08-03T12:34:00;0.98;;;0.20;;
27365;SDS011;14837;57.148;-2.144;2022-08-03T12:36:31;0.38;;;0.20;;
27365;SDS011;14837;57.148;-2.144;2022-08-03T12:38:59;0.47;;;0.10;;
27365;SDS011;14837;57.148;-2.144;2022-08-03T12:41:36;0.50;;;0.10;;
27365;SDS011;14837;57.148;-2.144;2022-08-03T12:44:04;0.10;;;0.10;;
27365;SDS011;14837;57.148;-2.144;2022-08-03T12:46:35;0.35;;;0.20;;
27365;SDS011;14837;57.148;-2.144;2022-08-03T12:49:06;0.55;;;0.10;;
27365;SDS011;14837;57.148;-2.144;2022-08-03T12:51:55;1.63;;;0.30;;
27365;SDS011;14837;57.148;-2.144;2022-08-03T12:54:22;1.65;;;0.20;;
27365;SDS011;14837;57.148;-2.144;2022-08-03T12:56:59;1.17;;;0.30;;
27365;SDS011;14837;57.148;-2.144;2022-08-03T12:59:27;0.10;;;0.10;;
27365;SDS011;14837;57.148;-2.144;2022-08-03T13:04:27;0.20;;;0.13;;
27365;SDS011;14837;57.148;-2.144;2022-08-03T13:07:05;2.95;;;0.30;;
27365;SDS011;14837;57.148;-2.144;2022-08-03T13:14:36;1.13;;;0.10;;
27365;SDS011;14837;57.148;-2.144;2022-08-03T13:17:03;0.80;;;0.10;;
27365;SDS011;14837;57.148;-2.144;2022-08-03T13:19:30;1.23;;;0.13;;
27365;SDS011;14837;57.148;-2.144;2022-08-03T13:21:57;0.85;;;0.22;;
27365;SDS011;14837;57.148;-2.144;2022-08-03T13:24:29;0.08;;;0.00;;
27365;SDS011;14837;57.148;-2.144;2022-08-03T13:26:57;0.13;;;0.10;;
27365;SDS011;14837;57.148;-2.144;2022-08-03T13:31:54;0.73;;;0.35;;
27365;SDS011;14837;57.148;-2.144;2022-08-03T13:34:20;0.10;;;0.10;;
27365;SDS011;14837;57.148;-2.144;2022-08-03T13:36:52;0.20;;;0.10;;
27365;SDS011;14837;57.148;-2.144;2022-08-03T13:39:35;0.00;;;0.00;;
27365;SDS011;14837;57.148;-2.144;2022-08-03T13:42:22;0.30;;;0.20;;
27365;SDS011;14837;57.148;-2.144;2022-08-03T13:44:48;0.17;;;0.17;;
27365;SDS011;14837;57.148;-2.144;2022-08-03T13:47:16;0.38;;;0.13;;
27365;SDS011;14837;57.148;-2.144;2022-08-03T13:49:42;0.10;;;0.10;;
27365;SDS011;14837;57.148;-2.144;2022-08-03T13:52:25;0.43;;;0.20;;
27365;SDS011;14837;57.148;-2.144;2022-08-03T13:54:52;0.98;;;0.20;;
27365;SDS011;14837;57.148;-2.144;2022-08-03T13:57:19;0.20;;;0.10;;
27365;SDS011;14837;57.148;-2.144;2022-08-03T14:00:06;0.85;;;0.25;;
27365;SDS011;14837;57.148;-2.144;2022-08-03T14:02:33;0.10;;;0.10;;
27365;SDS011;14837;57.148;-2.144;2022-08-03T14:04:59;0.98;;;0.28;;
27365;SDS011;14837;57.148;-2.144;2022-08-03T14:07:26;1.48;;;0.25;;
27365;SDS011;14837;57.148;-2.144;2022-08-03T14:09:52;0.38;;;0.17;;
27365;SDS011;14837;57.148;-2.144;2022-08-03T14:12:19;0.40;;;0.20;;
27365;SDS011;14837;57.148;-2.144;2022-08-03T14:14:45;0.45;;;0.17;;
27365;SDS011;14837;57.148;-2.144;2022-08-03T14:17:12;0.30;;;0.10;;
27365;SDS011;14837;57.148;-2.144;2022-08-03T14:19:41;0.65;;;0.30;;
27365;SDS011;14837;57.148;-2.144;2022-08-03T14:22:19;0.10;;;0.10;;
27365;SDS011;14837;57.148;-2.144;2022-08-03T14:24:46;2.45;;;0.35;;
27365;SDS011;14837;57.148;-2.144;2022-08-03T14:27:12;0.43;;;0.05;;
27365;SDS011;14837;57.148;-2.144;2022-08-03T14:29:39;0.13;;;0.10;;
27365;SDS011;14837;57.148;-2.144;2022-08-03T14:32:05;0.85;;;0.20;;
27365;SDS011;14837;57.148;-2.144;2022-08-03T14:34:37;0.55;;;0.25;;
27365;SDS011;14837;57.148;-2.144;2022-08-03T14:37:04;1.33;;;0.30;;
27365;SDS011;14837;57.148;-2.144;2022-08-03T14:39:30;5.13;;;0.38;;
27365;SDS011;14837;57.148;-2.144;2022-08-03T14:42:17;1.55;;;0.30;;
27365;SDS011;14837;57.148;-2.144;2022-08-03T14:44:45;0.85;;;0.40;;
27365;SDS011;14837;57.148;-2.144;2022-08-03T14:47:12;0.50;;;0.20;;
27365;SDS011;14837;57.148;-2.144;2022-08-03T14:49:39;0.28;;;0.13;;
27365;SDS011;14837;57.148;-2.144;2022-08-03T14:52:26;0.60;;;0.20;;
27365;SDS011;14837;57.148;-2.144;2022-08-03T14:54:52;0.30;;;0.20;;
27365;SDS011;14837;57.148;-2.144;2022-08-03T14:57:19;0.75;;;0.30;;
27365;SDS011;14837;57.148;-2.144;2022-08-03T14:59:46;1.40;;;0.20;;
27365;SDS011;14837;57.148;-2.144;2022-08-03T15:02:22;0.52;;;0.10;;
27365;SDS011;14837;57.148;-2.144;2022-08-03T15:04:49;0.45;;;0.22;;
27365;SDS011;14837;57.148;-2.144;2022-08-03T15:07:16;0.82;;;0.20;;
27365;SDS011;14837;57.148;-2.144;2022-08-03T15:09:43;1.83;;;0.20;;
27365;SDS011;14837;57.148;-2.144;2022-08-03T15:12:10;1.48;;;0.50;;
27365;SDS011;14837;57.148;-2.144;2022-08-03T15:14:37;2.38;;;0.63;;
27365;SDS011;14837;57.148;-2.144;2022-08-03T15:17:03;0.75;;;0.40;;
27365;SDS011;14837;57.148;-2.144;2022-08-03T15:19:30;4.78;;;0.68;;
27365;SDS011;14837;57.148;-2.144;2022-08-03T15:22:16;2.22;;;0.45;;
27365;SDS011;14837;57.148;-2.144;2022-08-03T15:24:50;2.13;;;0.43;;
27365;SDS011;14837;57.148;-2.144;2022-08-03T15:27:17;0.52;;;0.28;;
27365;SDS011;14837;57.148;-2.144;2022-08-03T15:29:44;0.70;;;0.30;;
27365;SDS011;14837;57.148;-2.144;2022-08-03T15:32:31;2.00;;;0.50;;
27365;SDS011;14837;57.148;-2.144;2022-08-03T15:34:58;3.08;;;0.80;;